Time;durP1;ratioP1;P1;durP2;ratioP2;P2;SDS_P1;SDS_P2;PMS_P1;PMS_P2;Temp;Humidity;BMP_temperature;BMP_pressure;BME280_temperature;BME280_humidity;BME280_pressure;Samples;Min_cycle;Max_cycle;Signal;HPM_P1;HPM_P2
2023/06/21 00:01:49;;;;;;;;;;;;;;;;;;5015099;28;20015;-76
2023/06/21 00:04:15;;;;;;;;;;;;;;;;;;5013690;28;19921;-75
2023/06/21 00:06:42;;;;;;;;;;;;;;;;;;5029987;28;19921;-73
2023/06/21 00:09:07;;;;;;;;;;;;;;;;;;5022554;28;19927;-76
2023/06/21 00:11:33;;;;;;;;;;;;;;;;;;5019387;28;19987;-73
2023/06/21 00:13:58;;;;;;;;;;;;;;;;;;5022518;28;19917;-74
2023/06/21 00:16:23;;;;;;;;;;;;;;;;;;5021293;28;20055;-71
2023/06/21 00:18:49;;;;;;;;;;;;;;;;;;5015117;28;19923;-77
2023/06/21 00:21:14;;;;;;;;;;;;;;;;;;5022997;28;20019;-72
2023/06/21 00:23:42;;;;;;;;;;;;;;;;;;5025663;28;19956;-79
2023/06/21 00:26:09;;;;;;;;;;;;;;;;;;5004002;28;19921;-78
2023/06/21 00:28:38;;;;;;;;;;;;;;;;;;5008322;28;21306;-76
2023/06/21 00:31:08;;;;;;;;;;;;;;;;;;5020153;28;19947;-73
2023/06/21 00:33:34;;;;;;;;;;;;;;;;;;5023456;28;21524;-71
2023/06/21 00:35:59;;;;;;;;;;;;;;;;;;5021926;28;19917;-72
2023/06/21 00:38:24;;;;;;;;;;;;;;;;;;5022087;28;19928;-75
2023/06/21 00:40:53;;;;;;;;;;;;;;;;;;4998968;28;19928;-75
2023/06/21 00:43:18;;;;;;;;;;;;;;;;;;5035790;28;19920;-74
2023/06/21 00:45:48;;;;;;;;;;;;;;;;;;5010033;28;19920;-75
2023/06/21 00:48:16;;;;;;;;;;;;;;;;;;5039934;28;20409;-79
2023/06/21 00:50:41;;;;;;;;;;;;;;;;;;5030148;28;20453;-76
2023/06/21 00:53:07;;;;;;;;;;;;;;;;;;5001168;28;19987;-74
2023/06/21 00:55:35;;;;;;;;;;;;;;;;;;5006920;28;19976;-74
2023/06/21 00:58:00;;;;;;;;;;;;;;;;;;5001834;28;20008;-73
2023/06/21 01:00:29;;;;;;;;;;;;;;;;;;5024332;28;20055;-74
2023/06/21 01:02:56;;;;;;;;;;;;;;;;;;5022485;28;19950;-71
2023/06/21 01:05:26;;;;;;;;;;;;;;;;;;5021441;28;19960;-72
2023/06/21 01:07:52;;;;;;;;;;;;;;;;;;5015912;28;19921;-73
2023/06/21 01:10:20;;;;;;;;;;;;;;;;;;5001391;28;20096;-74
2023/06/21 01:12:48;;;;;;;;;;;;;;;;;;5021951;28;20047;-74
2023/06/21 01:15:14;;;;;;;;;;;;;;;;;;5003910;28;19920;-74
2023/06/21 01:17:40;;;;;;;;;;;;;;;;;;5022390;28;19923;-73
2023/06/21 01:20:13;;;;;;;;;;;;;;;;;;5000338;28;20505;-73
2023/06/21 01:22:41;;;;;;;;;;;;;;;;;;5021112;28;19924;-73
2023/06/21 01:25:09;;;;;;;;;;;;;;;;;;5000640;28;19917;-74
2023/06/21 01:27:35;;;;;;;;;;;;;;;;;;5017550;28;20302;-73
2023/06/21 01:30:03;;;;;;;;;;;;;;;;;;5022911;28;19916;-74
2023/06/21 01:32:28;;;;;;;;;;;;;;;;;;5035083;28;20269;-75
2023/06/21 01:34:53;;;;;;;;;;;;;;;;;;5017078;28;20064;-74
2023/06/21 01:37:19;;;;;;;;;;;;;;;;;;5021980;28;19928;-73
2023/06/21 01:39:44;;;;;;;;;;;;;;;;;;5000618;28;19920;-73
2023/06/21 01:42:10;;;;;;;;;;;;;;;;;;5022081;28;19970;-72
2023/06/21 01:44:37;;;;;;;;;;;;;;;;;;5025201;28;19967;-73
2023/06/21 01:47:03;;;;;;;;;;;;;;;;;;5000451;28;20015;-76
2023/06/21 01:49:28;;;;;;;;;;;;;;;;;;5023188;28;20629;-75
2023/06/21 01:51:56;;;;;;;;;;;;;;;;;;5001015;28;20315;-73
2023/06/21 01:54:25;;;;;;;;;;;;;;;;;;5022152;28;20321;-73
2023/06/21 01:56:50;;;;;;;;;;;;;;;;;;5023152;28;20597;-74
2023/06/21 01:59:19;;;;;;;;;;;;;;;;;;5037946;28;19927;-73
2023/06/21 02:01:50;;;;;;;;;;;;;;;;;;5022749;28;19987;-76
2023/06/21 02:04:15;;;;;;;;;;;;;;;;;;5024162;28;20401;-75
2023/06/21 02:06:40;;;;;;;;;;;;;;;;;;4998543;28;20537;-76
2023/06/21 02:09:05;;;;;;;;;;;;;;;;;;5013620;28;20008;-76
2023/06/21 02:11:31;;;;;;;;;;;;;;;;;;4998830;28;19914;-75
2023/06/21 02:13:56;;;;;;;;;;;;;;;;;;5023239;28;20897;-73
2023/06/21 02:16:24;;;;;;;;;;;;;;;;;;5025526;28;19947;-74
2023/06/21 02:18:52;;;;;;;;;;;;;;;;;;5021622;28;20022;-76
2023/06/21 02:21:20;;;;;;;;;;;;;;;;;;5020680;28;19921;-74
2023/06/21 02:23:48;;;;;;;;;;;;;;;;;;5001832;28;19921;-78
2023/06/21 02:26:15;;;;;;;;;;;;;;;;;;5016232;28;20024;-75
2023/06/21 02:28:41;;;;;;;;;;;;;;;;;;5024359;28;19928;-76
2023/06/21 02:31:06;;;;;;;;;;;;;;;;;;5022550;28;20182;-76
2023/06/21 02:33:34;;;;;;;;;;;;;;;;;;5016913;28;20172;-76
2023/06/21 02:36:00;;;;;;;;;;;;;;;;;;5008099;28;19921;-76
2023/06/21 02:38:25;;;;;;;;;;;;;;;;;;4998122;28;19942;-77
2023/06/21 02:40:50;;;;;;;;;;;;;;;;;;5021510;28;19951;-75
2023/06/21 02:43:15;;;;;;;;;;;;;;;;;;5022203;28;20492;-80
2023/06/21 02:45:45;;;;;;;;;;;;;;;;;;5008729;28;20244;-78
2023/06/21 02:48:10;;;;;;;;;;;;;;;;;;5020149;28;19927;-78
2023/06/21 02:50:36;;;;;;;;;;;;;;;;;;5036540;28;20077;-76
2023/06/21 02:53:01;;;;;;;;;;;;;;;;;;5022721;28;19932;-77
2023/06/21 02:55:26;;;;;;;;;;;;;;;;;;4999208;28;19993;-76
2023/06/21 02:57:54;;;;;;;;;;;;;;;;;;5023366;28;19963;-76
2023/06/21 03:00:26;;;;;;;;;;;;;;;;;;4998649;28;20370;-77
2023/06/21 03:02:51;;;;;;;;;;;;;;;;;;5024120;28;19917;-78
2023/06/21 03:05:22;;;;;;;;;;;;;;;;;;5023891;28;20007;-76
2023/06/21 03:07:49;;;;;;;;;;;;;;;;;;5020705;28;19960;-78
2023/06/21 03:10:19;;;;;;;;;;;;;;;;;;5001184;28;19921;-77
2023/06/21 03:12:49;;;;;;;;;;;;;;;;;;5022354;28;19936;-76
2023/06/21 03:15:15;;;;;;;;;;;;;;;;;;5022050;28;20239;-74
2023/06/21 03:17:40;;;;;;;;;;;;;;;;;;5020743;28;19920;-75
2023/06/21 03:20:12;;;;;;;;;;;;;;;;;;5016366;28;19951;-74
2023/06/21 03:22:37;;;;;;;;;;;;;;;;;;5022789;28;19917;-74
2023/06/21 03:25:02;;;;;;;;;;;;;;;;;;5004775;28;19927;-74
2023/06/21 03:27:28;;;;;;;;;;;;;;;;;;5019856;28;19921;-74
2023/06/21 03:29:56;;;;;;;;;;;;;;;;;;5008444;28;20510;-76
2023/06/21 03:32:21;;;;;;;;;;;;;;;;;;5020306;28;19929;-77
2023/06/21 03:34:49;;;;;;;;;;;;;;;;;;4997460;28;19920;-76
2023/06/21 03:37:20;;;;;;;;;;;;;;;;;;5021656;28;19940;-75
2023/06/21 03:39:48;;;;;;;;;;;;;;;;;;5020251;28;19974;-74
2023/06/21 03:42:13;;;;;;;;;;;;;;;;;;5021721;28;19920;-74
2023/06/21 03:44:38;;;;;;;;;;;;;;;;;;5022308;28;19921;-74
2023/06/21 03:47:04;;;;;;;;;;;;;;;;;;5015110;28;19927;-73
2023/06/21 03:49:30;;;;;;;;;;;;;;;;;;5019102;28;19931;-75
2023/06/21 03:51:57;;;;;;;;;;;;;;;;;;5005680;28;19920;-74
2023/06/21 03:54:23;;;;;;;;;;;;;;;;;;4998574;28;20372;-76
2023/06/21 03:56:50;;;;;;;;;;;;;;;;;;5022013;28;19990;-74
2023/06/21 03:59:16;;;;;;;;;;;;;;;;;;5022014;28;20055;-74
2023/06/21 04:01:43;;;;;;;;;;;;;;;;;;5023750;28;20261;-74
2023/06/21 04:04:09;;;;;;;;;;;;;;;;;;5023268;28;19975;-77
2023/06/21 04:06:34;;;;;;;;;;;;;;;;;;5013244;28;20375;-74
2023/06/21 04:08:59;;;;;;;;;;;;;;;;;;5016030;28;19939;-73
2023/06/21 04:11:24;;;;;;;;;;;;;;;;;;5025459;28;22015;-75
2023/06/21 04:13:50;;;;;;;;;;;;;;;;;;5004405;28;20303;-75
2023/06/21 04:16:21;;;;;;;;;;;;;;;;;;5026327;28;19923;-77
2023/06/21 04:18:46;;;;;;;;;;;;;;;;;;5026267;28;20738;-74
2023/06/21 04:21:11;;;;;;;;;;;;;;;;;;5003417;28;19954;-74
2023/06/21 04:23:39;;;;;;;;;;;;;;;;;;5030133;28;19948;-73
2023/06/21 04:26:06;;;;;;;;;;;;;;;;;;5004668;28;20058;-74
2023/06/21 04:28:31;;;;;;;;;;;;;;;;;;5041675;28;19917;-74
2023/06/21 04:30:56;;;;;;;;;;;;;;;;;;5026917;28;19982;-75
2023/06/21 04:33:22;;;;;;;;;;;;;;;;;;5020935;28;19927;-73
2023/06/21 04:35:47;;;;;;;;;;;;;;;;;;5009526;28;19968;-76
2023/06/21 04:38:12;;;;;;;;;;;;;;;;;;5023127;28;19917;-78
2023/06/21 04:40:41;;;;;;;;;;;;;;;;;;5017255;28;20026;-78
2023/06/21 04:43:07;;;;;;;;;;;;;;;;;;5024393;28;20430;-75
2023/06/21 04:45:34;;;;;;;;;;;;;;;;;;5029662;28;19917;-74
2023/06/21 04:48:04;;;;;;;;;;;;;;;;;;5022302;28;20445;-75
2023/06/21 04:50:32;;;;;;;;;;;;;;;;;;5024310;28;20568;-76
2023/06/21 04:52:59;;;;;;;;;;;;;;;;;;5026603;28;19917;-75
2023/06/21 04:55:24;;;;;;;;;;;;;;;;;;5021136;28;20007;-74
2023/06/21 04:57:49;;;;;;;;;;;;;;;;;;5001967;28;20107;-75
2023/06/21 05:00:17;;;;;;;;;;;;;;;;;;5022765;28;20041;-73
2023/06/21 05:02:45;;;;;;;;;;;;;;;;;;5005207;28;19921;-75
2023/06/21 05:05:13;;;;;;;;;;;;;;;;;;5023571;28;20027;-76
2023/06/21 05:07:38;;;;;;;;;;;;;;;;;;5025986;28;20019;-79
2023/06/21 05:10:10;;;;;;;;;;;;;;;;;;5023049;28;19971;-76
2023/06/21 05:12:35;;;;;;;;;;;;;;;;;;5003197;28;20479;-79
2023/06/21 05:15:01;;;;;;;;;;;;;;;;;;5011312;28;19920;-80
2023/06/21 05:17:26;;;;;;;;;;;;;;;;;;5025922;28;20022;-75
2023/06/21 05:19:54;;;;;;;;;;;;;;;;;;5021321;28;19925;-74
2023/06/21 05:22:19;;;;;;;;;;;;;;;;;;5023063;28;19928;-73
2023/06/21 05:24:45;;;;;;;;;;;;;;;;;;5025427;28;19921;-80
2023/06/21 05:27:13;;;;;;;;;;;;;;;;;;5025546;28;21441;-74
2023/06/21 05:29:38;;;;;;;;;;;;;;;;;;5027318;28;20376;-74
2023/06/21 05:32:07;;;;;;;;;;;;;;;;;;5028074;28;20062;-70
2023/06/21 05:34:32;;;;;;;;;;;;;;;;;;5020581;28;19921;-75
2023/06/21 05:37:00;;;;;;;;;;;;;;;;;;5030168;28;20008;-73
2023/06/21 05:39:25;;;;;;;;;;;;;;;;;;5024959;28;20004;-75
2023/06/21 05:41:51;;;;;;;;;;;;;;;;;;5004633;28;19932;-76
2023/06/21 05:44:18;;;;;;;;;;;;;;;;;;5028459;28;19931;-83
2023/06/21 05:46:46;;;;;;;;;;;;;;;;;;5029749;28;20163;-78
2023/06/21 05:49:12;;;;;;;;;;;;;;;;;;5029209;28;20960;-75
2023/06/21 05:51:37;;;;;;;;;;;;;;;;;;5028369;28;20368;-79
2023/06/21 05:54:02;;;;;;;;;;;;;;;;;;5025240;28;20449;-76
2023/06/21 05:56:37;;;;;;;;;;;;;;;;;;5021024;28;19920;-77
2023/06/21 05:59:02;;;;;;;;;;;;;;;;;;5026441;28;20395;-76
2023/06/21 06:01:27;;;;;;;;;;;;;;;;;;5008665;28;19932;-72
2023/06/21 06:03:53;;;;;;;;;;;;;;;;;;5024384;28;19921;-75
2023/06/21 06:06:23;;;;;;;;;;;;;;;;;;5018564;28;20800;-76
2023/06/21 06:08:49;;;;;;;;;;;;;;;;;;5015722;28;19920;-72
2023/06/21 06:11:14;;;;;;;;;;;;;;;;;;5025723;28;19924;-81
2023/06/21 06:13:39;;;;;;;;;;;;;;;;;;5016107;28;20056;-72
2023/06/21 06:16:05;;;;;;;;;;;;;;;;;;5023148;28;19921;-74
2023/06/21 06:18:30;;;;;;;;;;;;;;;;;;5015029;28;19925;-70
2023/06/21 06:20:58;;;;;;;;;;;;;;;;;;5023623;28;19920;-70
2023/06/21 06:23:24;;;;;;;;;;;;;;;;;;5016880;28;20949;-71
2023/06/21 06:25:49;;;;;;;;;;;;;;;;;;5000584;28;20280;-71
2023/06/21 06:28:15;;;;;;;;;;;;;;;;;;5028292;28;21415;-71
2023/06/21 06:30:43;;;;;;;;;;;;;;;;;;5019921;28;19921;-75
2023/06/21 06:33:08;;;;;;;;;;;;;;;;;;5026164;28;20210;-68
2023/06/21 06:35:34;;;;;;;;;;;;;;;;;;5027517;28;19920;-75
2023/06/21 06:38:02;;;;;;;;;;;;;;;;;;5026079;28;21084;-70
2023/06/21 06:40:31;;;;;;;;;;;;;;;;;;5027552;28;19924;-73
2023/06/21 06:42:57;;;;;;;;;;;;;;;;;;5026898;28;19928;-70
2023/06/21 06:45:25;;;;;;;;;;;;;;;;;;5026602;28;19920;-72
2023/06/21 06:47:53;;;;;;;;;;;;;;;;;;5027374;28;19924;-68
2023/06/21 06:50:18;;;;;;;;;;;;;;;;;;5028007;28;19996;-73
2023/06/21 06:52:44;;;;;;;;;;;;;;;;;;5026401;28;19927;-70
2023/06/21 06:55:09;;;;;;;;;;;;;;;;;;5026153;28;19916;-73
2023/06/21 06:57:36;;;;;;;;;;;;;;;;;;5021881;28;19932;-76
2023/06/21 07:00:02;;;;;;;;;;;;;;;;;;5026360;28;19959;-70
2023/06/21 07:02:28;;;;;;;;;;;;;;;;;;5008065;28;19917;-74
2023/06/21 07:04:53;;;;;;;;;;;;;;;;;;5026370;28;19917;-72
2023/06/21 07:07:19;;;;;;;;;;;;;;;;;;5021916;28;19918;-71
2023/06/21 07:09:44;;;;;;;;;;;;;;;;;;5024289;28;19920;-69
2023/06/21 07:12:12;;;;;;;;;;;;;;;;;;5002553;28;19921;-69
2023/06/21 07:14:38;;;;;;;;;;;;;;;;;;5023924;28;20094;-71
2023/06/21 07:17:03;;;;;;;;;;;;;;;;;;5022981;28;19990;-69
2023/06/21 07:19:49;;;;;;;;;;;;;;;;;;5024781;28;19921;-73
2023/06/21 07:25:08;;;;;;;;;;;;;;;;;;5035085;28;19938;-75
2023/06/21 07:27:34;;;;;;;;;;;;;;;;;;5025947;28;19923;-71
2023/06/21 07:30:02;;;;;;;;;;;;;;;;;;5026562;28;20599;-71
2023/06/21 07:32:27;;;;;;;;;;;;;;;;;;5026336;28;19960;-74
2023/06/21 07:34:53;;;;;;;;;;;;;;;;;;5026281;28;20483;-72
2023/06/21 07:37:18;;;;;;;;;;;;;;;;;;5011488;28;19920;-70
2023/06/21 07:39:44;;;;;;;;;;;;;;;;;;5011492;28;20273;-74
2023/06/21 07:42:09;;;;;;;;;;;;;;;;;;5026042;28;19970;-71
2023/06/21 07:44:35;;;;;;;;;;;;;;;;;;5026584;28;19944;-70
2023/06/21 07:47:00;;;;;;;;;;;;;;;;;;5024725;28;19928;-71
2023/06/21 07:49:43;;;;;;;;;;;;;;;;;;5004259;28;20323;-71
2023/06/21 07:56:14;;;;;;;;;;;;;;;;;;5025526;28;19974;-69
2023/06/21 07:58:44;;;;;;;;;;;;;;;;;;5027450;28;19928;-71
2023/06/21 08:01:11;;;;;;;;;;;;;;;;;;5026304;28;19928;-74
2023/06/21 08:03:40;;;;;;;;;;;;;;;;;;5031160;28;19921;-73
2023/06/21 08:09:46;;;;;;;;;;;;;;;;;;5029346;28;20258;-73
2023/06/21 08:11:49;;;;;;;;;;;;;;;;;;5022757;28;20544;-70
2023/06/21 08:14:15;;;;;;;;;;;;;;;;;;5014438;28;20392;-74
2023/06/21 08:16:40;;;;;;;;;;;;;;;;;;5006364;28;20327;-70
2023/06/21 08:19:08;;;;;;;;;;;;;;;;;;5020128;28;19920;-75
2023/06/21 08:21:35;;;;;;;;;;;;;;;;;;5027243;28;21496;-75
2023/06/21 08:24:00;;;;;;;;;;;;;;;;;;5026068;28;19916;-68
2023/06/21 08:26:26;;;;;;;;;;;;;;;;;;5027998;28;19967;-73
2023/06/21 08:28:51;;;;;;;;;;;;;;;;;;5028439;28;19924;-67
2023/06/21 08:31:23;;;;;;;;;;;;;;;;;;5025279;28;19929;-71
2023/06/21 08:34:13;;;;;;;;;;;;;;;;;;5026025;28;20368;-72
2023/06/21 08:40:16;;;;;;;;;;;;;;;;;;5029689;28;19947;-70
2023/06/21 08:42:48;;;;;;;;;;;;;;;;;;5044260;28;19964;-71
2023/06/21 08:45:14;;;;;;;;;;;;;;;;;;5040181;28;20435;-72
2023/06/21 08:47:39;;;;;;;;;;;;;;;;;;5023545;28;19917;-70
2023/06/21 08:50:05;;;;;;;;;;;;;;;;;;5009408;28;20071;-69
2023/06/21 08:52:39;;;;;;;;;;;;;;;;;;5023214;28;19928;-71
2023/06/21 08:55:08;;;;;;;;;;;;;;;;;;5003778;28;19925;-70
2023/06/21 08:57:33;;;;;;;;;;;;;;;;;;5025614;28;19925;-71
2023/06/21 08:59:59;;;;;;;;;;;;;;;;;;5025544;28;20292;-70
2023/06/21 09:02:24;;;;;;;;;;;;;;;;;;5020238;28;19963;-69
2023/06/21 09:04:50;;;;;;;;;;;;;;;;;;5026621;28;20211;-69
2023/06/21 09:07:15;;;;;;;;;;;;;;;;;;5025402;28;20269;-72
2023/06/21 09:09:40;;;;;;;;;;;;;;;;;;5025263;28;19936;-72
2023/06/21 09:12:06;;;;;;;;;;;;;;;;;;5028015;28;19921;-72
2023/06/21 09:14:31;;;;;;;;;;;;;;;;;;5024235;28;20257;-66
2023/06/21 09:16:57;;;;;;;;;;;;;;;;;;5002319;28;19921;-72
2023/06/21 09:19:22;;;;;;;;;;;;;;;;;;5031537;28;19928;-70
2023/06/21 09:21:47;;;;;;;;;;;;;;;;;;5025606;28;20016;-67
2023/06/21 09:24:13;;;;;;;;;;;;;;;;;;5026348;28;20498;-65
2023/06/21 09:26:38;;;;;;;;;;;;;;;;;;5023254;28;19917;-70
2023/06/21 09:29:10;;;;;;;;;;;;;;;;;;5038354;28;20023;-70
2023/06/21 09:31:36;;;;;;;;;;;;;;;;;;4998678;28;19932;-73
2023/06/21 09:34:02;;;;;;;;;;;;;;;;;;5019144;28;19973;-69
2023/06/21 09:36:32;;;;;;;;;;;;;;;;;;5010209;28;19964;-68
2023/06/21 09:38:58;;;;;;;;;;;;;;;;;;5027197;28;20273;-70
2023/06/21 09:44:41;;;;;;;;;;;;;;;;;;5022228;28;20161;-69
2023/06/21 09:47:09;;;;;;;;;;;;;;;;;;5017153;28;19923;-68
2023/06/21 09:49:35;;;;;;;;;;;;;;;;;;5020033;28;19924;-71
2023/06/21 09:52:02;;;;;;;;;;;;;;;;;;5022435;28;19921;-71
2023/06/21 09:54:28;;;;;;;;;;;;;;;;;;4995944;28;20354;-70
2023/06/21 09:56:56;;;;;;;;;;;;;;;;;;5022464;28;20439;-70
2023/06/21 09:59:22;;;;;;;;;;;;;;;;;;5017471;28;19953;-69
2023/06/21 10:01:50;;;;;;;;;;;;;;;;;;5024172;28;20165;-69
2023/06/21 10:04:16;;;;;;;;;;;;;;;;;;5021308;28;20407;-70
2023/06/21 10:06:41;;;;;;;;;;;;;;;;;;5009787;28;19921;-71
2023/06/21 10:09:06;;;;;;;;;;;;;;;;;;5020790;28;20361;-68
2023/06/21 10:11:32;;;;;;;;;;;;;;;;;;5021498;28;20498;-70
2023/06/21 10:14:00;;;;;;;;;;;;;;;;;;5020202;28;19921;-70
2023/06/21 10:16:25;;;;;;;;;;;;;;;;;;5022809;28;19917;-66
2023/06/21 10:18:50;;;;;;;;;;;;;;;;;;5021308;28;20025;-68
2023/06/21 10:22:04;;;;;;;;;;;;;;;;;;5015219;28;19939;-67
2023/06/21 10:24:44;;;;;;;;;;;;;;;;;;5021676;28;19928;-68
2023/06/21 10:27:09;;;;;;;;;;;;;;;;;;5019404;28;19916;-68
2023/06/21 10:29:45;;;;;;;;;;;;;;;;;;5000707;28;19928;-67
2023/06/21 10:32:58;;;;;;;;;;;;;;;;;;5021681;28;19978;-68
2023/06/21 10:35:30;;;;;;;;;;;;;;;;;;5021446;28;19927;-67
2023/06/21 10:37:58;;;;;;;;;;;;;;;;;;5019052;28;20016;-68
2023/06/21 10:40:24;;;;;;;;;;;;;;;;;;4998717;28;19917;-69
2023/06/21 10:42:55;;;;;;;;;;;;;;;;;;5020861;28;19928;-67
2023/06/21 10:45:21;;;;;;;;;;;;;;;;;;5036777;28;19917;-67
2023/06/21 10:47:46;;;;;;;;;;;;;;;;;;5020401;28;19927;-66
2023/06/21 10:50:11;;;;;;;;;;;;;;;;;;5001341;28;19957;-66
2023/06/21 10:52:36;;;;;;;;;;;;;;;;;;5007556;28;19921;-68
2023/06/21 10:55:04;;;;;;;;;;;;;;;;;;5024680;28;19995;-66
2023/06/21 10:57:29;;;;;;;;;;;;;;;;;;5020474;28;20358;-65
2023/06/21 10:59:55;;;;;;;;;;;;;;;;;;5021582;28;20283;-67
2023/06/21 11:02:20;;;;;;;;;;;;;;;;;;5023671;28;19989;-66
2023/06/21 11:04:48;;;;;;;;;;;;;;;;;;5024196;28;19948;-67
2023/06/21 11:07:16;;;;;;;;;;;;;;;;;;5023286;28;20513;-64
2023/06/21 11:09:41;;;;;;;;;;;;;;;;;;5002537;28;20391;-67
2023/06/21 11:12:15;;;;;;;;;;;;;;;;;;5015774;28;19990;-65
2023/06/21 11:14:43;;;;;;;;;;;;;;;;;;5037239;28;19920;-67
2023/06/21 11:17:08;;;;;;;;;;;;;;;;;;5021353;28;19925;-66
2023/06/21 11:19:36;;;;;;;;;;;;;;;;;;5016523;28;20087;-63
2023/06/21 11:22:01;;;;;;;;;;;;;;;;;;5024829;28;19925;-63
2023/06/21 11:24:27;;;;;;;;;;;;;;;;;;5022940;28;20103;-66
2023/06/21 11:26:56;;;;;;;;;;;;;;;;;;5021276;28;20403;-64
2023/06/21 11:29:22;;;;;;;;;;;;;;;;;;5019253;28;19968;-68
2023/06/21 11:31:48;;;;;;;;;;;;;;;;;;5008127;28;20475;-64
2023/06/21 11:34:15;;;;;;;;;;;;;;;;;;5014919;28;20018;-65
2023/06/21 11:36:44;;;;;;;;;;;;;;;;;;5006319;28;20326;-64
2023/06/21 11:39:10;;;;;;;;;;;;;;;;;;5021624;28;19924;-66
2023/06/21 11:41:40;;;;;;;;;;;;;;;;;;5004228;28;20347;-65
2023/06/21 11:44:08;;;;;;;;;;;;;;;;;;5004046;28;19917;-68
2023/06/21 11:46:33;;;;;;;;;;;;;;;;;;5035872;28;20656;-68
2023/06/21 11:48:58;;;;;;;;;;;;;;;;;;5000738;28;19975;-64
2023/06/21 11:51:23;;;;;;;;;;;;;;;;;;5021000;28;19924;-65
2023/06/21 11:53:50;;;;;;;;;;;;;;;;;;5008606;28;19967;-69
2023/06/21 11:56:22;;;;;;;;;;;;;;;;;;5008075;28;20010;-68
2023/06/21 11:58:48;;;;;;;;;;;;;;;;;;5021269;28;20035;-65
2023/06/21 12:01:15;;;;;;;;;;;;;;;;;;5008661;28;20521;-70
2023/06/21 12:03:41;;;;;;;;;;;;;;;;;;5020314;28;19921;-64
2023/06/21 12:06:06;;;;;;;;;;;;;;;;;;5023377;28;19920;-66
2023/06/21 12:08:31;;;;;;;;;;;;;;;;;;4998011;28;20341;-65
2023/06/21 12:10:57;;;;;;;;;;;;;;;;;;5023058;28;19968;-66
2023/06/21 12:13:26;;;;;;;;;;;;;;;;;;5021788;28;20600;-67
2023/06/21 12:15:54;;;;;;;;;;;;;;;;;;5023400;28;20074;-70
2023/06/21 12:18:19;;;;;;;;;;;;;;;;;;5023153;28;19921;-67
2023/06/21 12:20:44;;;;;;;;;;;;;;;;;;5015872;28;19921;-68
2023/06/21 12:23:12;;;;;;;;;;;;;;;;;;5021279;28;21411;-65
2023/06/21 12:25:40;;;;;;;;;;;;;;;;;;5016790;28;19923;-66
2023/06/21 12:28:19;;;;;;;;;;;;;;;;;;;;;
2023/06/21 12:30:53;;;;;;;;;;;;;;;;;;5025409;28;19925;-66
2023/06/21 12:33:20;;;;;;;;;;;;;;;;;;5019805;28;19921;-66
2023/06/21 12:35:45;;;;;;;;;;;;;;;;;;5011666;28;19967;-65
2023/06/21 12:38:13;;;;;;;;;;;;;;;;;;5026954;28;20012;-67
2023/06/21 12:40:41;;;;;;;;;;;;;;;;;;5020852;28;20299;-68
2023/06/21 12:43:12;;;;;;;;;;;;;;;;;;5023659;28;20442;-67
2023/06/21 12:45:37;;;;;;;;;;;;;;;;;;5021897;28;19948;-66
2023/06/21 12:48:02;;;;;;;;;;;;;;;;;;5024769;28;19921;-66
2023/06/21 12:50:30;;;;;;;;;;;;;;;;;;5018679;28;19925;-66
2023/06/21 12:52:58;;;;;;;;;;;;;;;;;;5010040;28;19917;-67
2023/06/21 12:55:23;;;;;;;;;;;;;;;;;;5026124;28;20377;-64
2023/06/21 12:57:49;;;;;;;;;;;;;;;;;;5004994;28;20465;-64
2023/06/21 13:00:15;;;;;;;;;;;;;;;;;;5010953;28;19921;-65
2023/06/21 13:02:43;;;;;;;;;;;;;;;;;;5023639;28;19960;-68
2023/06/21 13:05:09;;;;;;;;;;;;;;;;;;5025259;28;20004;-69
2023/06/21 13:07:36;;;;;;;;;;;;;;;;;;5022973;28;19917;-65
2023/06/21 13:10:02;;;;;;;;;;;;;;;;;;5025364;28;19950;-67
2023/06/21 13:12:28;;;;;;;;;;;;;;;;;;5026214;28;19928;-67
2023/06/21 13:14:56;;;;;;;;;;;;;;;;;;5024015;28;20242;-67
2023/06/21 13:17:21;;;;;;;;;;;;;;;;;;5023071;28;19928;-67
2023/06/21 13:19:49;;;;;;;;;;;;;;;;;;5002369;28;20035;-66
2023/06/21 13:22:14;;;;;;;;;;;;;;;;;;5019108;28;20292;-65
2023/06/21 13:24:40;;;;;;;;;;;;;;;;;;5024039;28;19928;-64
2023/06/21 13:27:05;;;;;;;;;;;;;;;;;;5024226;28;19971;-66
2023/06/21 13:29:33;;;;;;;;;;;;;;;;;;5038171;28;20016;-65
2023/06/21 13:32:03;;;;;;;;;;;;;;;;;;5018563;28;21539;-69
2023/06/21 13:34:29;;;;;;;;;;;;;;;;;;5000979;28;20282;-66
2023/06/21 13:36:55;;;;;;;;;;;;;;;;;;5009292;28;19974;-65
2023/06/21 13:39:20;;;;;;;;;;;;;;;;;;5016218;28;20326;-65
2023/06/21 13:41:46;;;;;;;;;;;;;;;;;;5022327;28;19921;-67
2023/06/21 13:44:11;;;;;;;;;;;;;;;;;;5021888;28;19921;-66
2023/06/21 13:46:37;;;;;;;;;;;;;;;;;;5023337;28;20140;-67
2023/06/21 13:49:04;;;;;;;;;;;;;;;;;;5024396;28;20240;-65
2023/06/21 13:51:30;;;;;;;;;;;;;;;;;;5001268;28;19925;-66
2023/06/21 13:53:55;;;;;;;;;;;;;;;;;;5023313;28;19931;-68
2023/06/21 13:56:20;;;;;;;;;;;;;;;;;;5023988;28;20020;-67
2023/06/21 13:58:48;;;;;;;;;;;;;;;;;;5005191;28;19982;-69
2023/06/21 14:01:16;;;;;;;;;;;;;;;;;;5017909;28;20033;-66
2023/06/21 14:03:45;;;;;;;;;;;;;;;;;;5025270;28;19925;-67
2023/06/21 14:06:10;;;;;;;;;;;;;;;;;;5022949;28;20442;-63
2023/06/21 14:08:35;;;;;;;;;;;;;;;;;;5022913;28;20027;-66
2023/06/21 14:11:03;;;;;;;;;;;;;;;;;;5001057;28;20131;-67
2023/06/21 14:13:28;;;;;;;;;;;;;;;;;;5023256;28;19986;-66
2023/06/21 14:16:00;;;;;;;;;;;;;;;;;;5023938;28;20642;-69
2023/06/21 14:18:29;;;;;;;;;;;;;;;;;;5022745;28;19917;-65
2023/06/21 14:20:57;;;;;;;;;;;;;;;;;;5022322;28;19951;-66
2023/06/21 14:23:23;;;;;;;;;;;;;;;;;;5022562;28;20460;-64
2023/06/21 14:25:48;;;;;;;;;;;;;;;;;;5023663;28;19920;-69
2023/06/21 14:28:13;;;;;;;;;;;;;;;;;;5001205;28;20647;-65
2023/06/21 14:30:38;;;;;;;;;;;;;;;;;;5016881;28;19924;-72
2023/06/21 14:33:04;;;;;;;;;;;;;;;;;;5022821;28;19931;-65
2023/06/21 14:35:29;;;;;;;;;;;;;;;;;;5023578;28;20109;-66
2023/06/21 14:37:59;;;;;;;;;;;;;;;;;;5017451;28;19932;-66
2023/06/21 14:40:25;;;;;;;;;;;;;;;;;;5002052;28;19975;-66
2023/06/21 14:42:50;;;;;;;;;;;;;;;;;;4997766;28;20003;-67
2023/06/21 14:45:15;;;;;;;;;;;;;;;;;;5033127;28;20272;-67
2023/06/21 14:47:41;;;;;;;;;;;;;;;;;;4999014;28;20395;-67
2023/06/21 14:50:06;;;;;;;;;;;;;;;;;;5023936;28;20006;-67
2023/06/21 14:52:31;;;;;;;;;;;;;;;;;;5024742;28;20011;-70
2023/06/21 14:54:57;;;;;;;;;;;;;;;;;;5017883;28;21188;-66
2023/06/21 14:57:22;;;;;;;;;;;;;;;;;;5022749;28;20385;-69
2023/06/21 14:59:51;;;;;;;;;;;;;;;;;;5018877;28;19921;-66
2023/06/21 15:02:16;;;;;;;;;;;;;;;;;;5024432;28;20060;-68
2023/06/21 15:04:41;;;;;;;;;;;;;;;;;;4999092;28;19921;-66
2023/06/21 15:07:14;;;;;;;;;;;;;;;;;;5018593;28;19920;-66
2023/06/21 15:09:39;;;;;;;;;;;;;;;;;;5000038;28;19916;-63
2023/06/21 15:12:04;;;;;;;;;;;;;;;;;;5022336;28;19927;-66
2023/06/21 15:14:32;;;;;;;;;;;;;;;;;;5022763;28;21817;-67
2023/06/21 15:17:00;;;;;;;;;;;;;;;;;;4999293;28;19932;-66
2023/06/21 15:19:28;;;;;;;;;;;;;;;;;;5023457;28;20017;-67
2023/06/21 15:21:56;;;;;;;;;;;;;;;;;;5025190;28;20019;-67
2023/06/21 15:24:21;;;;;;;;;;;;;;;;;;5020862;28;19998;-71
2023/06/21 15:26:46;;;;;;;;;;;;;;;;;;5023554;28;19925;-71
2023/06/21 15:29:15;;;;;;;;;;;;;;;;;;5010058;28;22392;-68
2023/06/21 15:31:42;;;;;;;;;;;;;;;;;;5023007;28;20529;-68
2023/06/21 15:34:07;;;;;;;;;;;;;;;;;;5023665;28;19948;-69
2023/06/21 15:36:32;;;;;;;;;;;;;;;;;;5023357;28;20098;-68
2023/06/21 15:38:58;;;;;;;;;;;;;;;;;;5024297;28;19971;-69
2023/06/21 15:41:23;;;;;;;;;;;;;;;;;;5026100;28;19928;-68
2023/06/21 15:43:48;;;;;;;;;;;;;;;;;;5007566;28;20395;-70
2023/06/21 15:46:17;;;;;;;;;;;;;;;;;;5026191;28;20003;-67
2023/06/21 15:48:43;;;;;;;;;;;;;;;;;;5023052;28;19921;-67
2023/06/21 15:51:08;;;;;;;;;;;;;;;;;;5026870;28;19928;-68
2023/06/21 15:53:36;;;;;;;;;;;;;;;;;;5023317;28;20544;-69
2023/06/21 15:56:01;;;;;;;;;;;;;;;;;;5021776;28;20427;-66
2023/06/21 15:58:27;;;;;;;;;;;;;;;;;;5020640;28;20016;-67
2023/06/21 16:00:52;;;;;;;;;;;;;;;;;;5021450;28;19921;-69
2023/06/21 16:03:17;;;;;;;;;;;;;;;;;;5019672;28;19921;-71
2023/06/21 16:05:45;;;;;;;;;;;;;;;;;;5020830;28;19932;-68
2023/06/21 16:08:10;;;;;;;;;;;;;;;;;;5022481;28;19920;-69
2023/06/21 16:10:41;;;;;;;;;;;;;;;;;;5021170;28;19932;-69
2023/06/21 16:13:06;;;;;;;;;;;;;;;;;;5016057;28;20450;-67
2023/06/21 16:15:32;;;;;;;;;;;;;;;;;;5022624;28;20035;-67
2023/06/21 16:17:57;;;;;;;;;;;;;;;;;;5003525;28;20048;-70
2023/06/21 16:20:22;;;;;;;;;;;;;;;;;;4998898;28;23973;-69
2023/06/21 16:22:50;;;;;;;;;;;;;;;;;;5020921;28;20430;-68
2023/06/21 16:25:15;;;;;;;;;;;;;;;;;;5007828;28;20395;-68
2023/06/21 16:27:43;;;;;;;;;;;;;;;;;;5023617;28;19963;-67
2023/06/21 16:30:11;;;;;;;;;;;;;;;;;;5001196;28;19925;-71
2023/06/21 16:32:37;;;;;;;;;;;;;;;;;;5022503;28;19925;-72
2023/06/21 16:35:05;;;;;;;;;;;;;;;;;;5017692;28;20001;-69
2023/06/21 16:37:30;;;;;;;;;;;;;;;;;;5022539;28;19936;-69
2023/06/21 16:39:58;;;;;;;;;;;;;;;;;;5020858;28;19963;-69
2023/06/21 16:42:24;;;;;;;;;;;;;;;;;;5022932;28;19925;-68
2023/06/21 16:44:53;;;;;;;;;;;;;;;;;;5021322;28;19960;-71
2023/06/21 16:47:18;;;;;;;;;;;;;;;;;;5000451;28;20121;-68
2023/06/21 16:49:43;;;;;;;;;;;;;;;;;;5022249;28;19921;-68
2023/06/21 16:52:09;;;;;;;;;;;;;;;;;;5022865;28;19974;-70
2023/06/21 16:54:34;;;;;;;;;;;;;;;;;;5021343;28;19916;-68
2023/06/21 16:56:59;;;;;;;;;;;;;;;;;;5021726;28;20113;-70
2023/06/21 16:59:25;;;;;;;;;;;;;;;;;;5021570;28;19916;-68
2023/06/21 17:01:50;;;;;;;;;;;;;;;;;;5020004;28;20012;-67